createdAt,value
2022-12-01T00:00:17.917Z,0.90
2022-12-01T00:05:22.180Z,0.98
2022-12-01T00:10:25.908Z,1.00
2022-12-01T00:15:32.248Z,0.82
2022-12-01T00:20:36.335Z,1.40
2022-12-01T00:25:39.912Z,1.20
2022-12-01T00:30:45.097Z,1.20
2022-12-01T00:35:48.660Z,0.93
2022-12-01T00:40:52.261Z,1.30
2022-12-01T00:45:57.829Z,1.00
2022-12-01T00:51:01.436Z,1.37
2022-12-01T00:56:05.250Z,1.30
2022-12-01T01:01:11.406Z,1.10
2022-12-01T01:11:17.926Z,2.20
2022-12-01T01:16:23.385Z,2.17
2022-12-01T01:21:27.625Z,1.90
2022-12-01T01:26:32.393Z,2.38
2022-12-01T01:31:37.650Z,1.95
2022-12-01T01:36:41.211Z,2.42
2022-12-01T01:41:44.783Z,1.50
2022-12-01T01:46:50.062Z,2.65
2022-12-01T01:51:55.021Z,2.53
2022-12-01T01:57:00.803Z,2.90
2022-12-01T02:02:08.384Z,3.10
2022-12-01T02:07:14.355Z,2.05
2022-12-01T02:12:44.568Z,2.42
2022-12-01T02:18:02.489Z,2.33
2022-12-01T02:23:48.262Z,2.30
2022-12-01T02:29:14.167Z,2.30
2022-12-01T02:34:25.165Z,2.23
2022-12-01T02:39:35.070Z,3.08
2022-12-01T02:44:42.677Z,2.55
2022-12-01T02:49:50.277Z,2.63
2022-12-01T02:54:54.688Z,2.92
2022-12-01T02:59:59.805Z,2.85
2022-12-01T03:05:09.134Z,2.80
2022-12-01T03:10:22.358Z,3.00
2022-12-01T03:15:35.602Z,2.63
2022-12-01T03:20:48.109Z,2.92
2022-12-01T03:25:55.134Z,2.63
2022-12-01T03:31:03.191Z,2.80
2022-12-01T03:36:12.432Z,2.67
2022-12-01T03:41:20.825Z,3.10
2022-12-01T03:46:33.817Z,2.30
2022-12-01T03:51:45.811Z,3.40
2022-12-01T03:56:53.580Z,3.00
2022-12-01T04:01:58.347Z,2.97
2022-12-01T04:07:03.761Z,3.03
2022-12-01T04:12:07.760Z,2.90
2022-12-01T04:17:11.294Z,2.60
2022-12-01T04:22:16.557Z,2.10
2022-12-01T04:27:20.829Z,2.28
2022-12-01T04:32:24.382Z,1.30
2022-12-01T04:37:29.560Z,1.40
2022-12-01T04:42:33.258Z,1.20
2022-12-01T04:47:36.836Z,1.30
2022-12-01T04:52:42.045Z,1.27
2022-12-01T04:57:45.584Z,1.73
2022-12-01T05:02:49.131Z,1.27
2022-12-01T05:07:54.428Z,1.73
2022-12-01T05:12:58.059Z,1.63
2022-12-01T05:18:01.814Z,1.67
2022-12-01T05:23:08.181Z,1.67
2022-12-01T05:28:13.318Z,1.67
2022-12-01T05:33:16.933Z,1.83
2022-12-01T05:38:22.301Z,2.00
2022-12-01T05:43:29.482Z,1.90
2022-12-01T05:48:34.310Z,1.80
2022-12-01T05:53:39.780Z,1.70
2022-12-01T05:58:43.380Z,1.60
2022-12-01T06:03:47.147Z,1.90
2022-12-01T06:08:52.396Z,1.80
2022-12-01T06:13:55.905Z,2.00
2022-12-01T06:18:59.493Z,1.50
2022-12-01T06:24:04.954Z,1.55
2022-12-01T06:29:08.564Z,1.67
2022-12-01T06:34:12.405Z,1.30
2022-12-01T06:39:18.731Z,2.03
2022-12-01T06:44:22.505Z,1.60
2022-12-01T06:49:26.097Z,1.55
2022-12-01T06:54:32.218Z,1.35
2022-12-01T06:59:35.810Z,1.40
2022-12-01T07:04:39.824Z,1.45
2022-12-01T07:09:45.010Z,1.35
2022-12-01T07:14:49.002Z,1.00
2022-12-01T07:19:52.577Z,1.10
2022-12-01T07:24:57.820Z,1.00
2022-12-01T07:30:02.074Z,1.23
2022-12-01T07:35:06.095Z,0.80
2022-12-01T07:40:12.856Z,1.27
2022-12-01T07:45:16.609Z,1.02
2022-12-01T07:50:20.151Z,1.00
2022-12-01T07:55:25.350Z,1.17
2022-12-01T08:00:28.893Z,1.10
2022-12-01T08:05:32.541Z,1.00
2022-12-01T08:10:37.933Z,1.23
2022-12-01T08:15:41.602Z,0.63
2022-12-01T08:20:45.163Z,1.17
2022-12-01T08:25:50.363Z,1.15
2022-12-01T08:30:53.954Z,1.08
2022-12-01T08:35:57.541Z,1.13
2022-12-01T08:41:04.270Z,1.08
2022-12-01T08:46:08.230Z,0.95
2022-12-01T08:51:13.511Z,0.85
2022-12-01T08:56:20.977Z,1.13
2022-12-01T09:01:24.856Z,1.02
2022-12-01T09:06:28.801Z,1.20
2022-12-01T09:11:34.077Z,0.85
2022-12-01T09:16:37.828Z,1.13
2022-12-01T09:21:41.760Z,1.33
2022-12-01T09:26:46.917Z,1.08
2022-12-01T09:31:50.500Z,1.10
2022-12-01T09:36:56.670Z,1.30
2022-12-01T09:42:08.994Z,0.80
2022-12-01T09:47:18.096Z,1.05
2022-12-01T09:52:23.850Z,0.80
2022-12-01T09:57:33.488Z,0.97
2022-12-01T10:02:40.949Z,1.08
2022-12-01T10:07:49.376Z,0.93
2022-12-01T10:12:54.943Z,0.98
2022-12-01T10:18:13.756Z,0.90
2022-12-01T10:23:33.904Z,1.15
2022-12-01T10:28:54.230Z,1.35
2022-12-01T10:34:03.764Z,0.80
2022-12-01T10:39:08.115Z,1.10
2022-12-01T10:44:14.024Z,1.20
2022-12-01T10:49:19.664Z,1.30
2022-12-01T10:54:24.242Z,1.20
2022-12-01T10:59:33.379Z,1.35
2022-12-01T11:04:40.902Z,1.40
2022-12-01T11:09:47.637Z,1.40
2022-12-01T11:14:55.633Z,1.38
2022-12-01T11:19:59.566Z,1.55
2022-12-01T11:25:05.685Z,1.63
2022-12-01T11:30:23.711Z,1.77
2022-12-01T11:35:38.563Z,1.55
2022-12-01T11:40:49.028Z,1.50
2022-12-01T11:45:54.443Z,2.20
2022-12-01T11:51:09.027Z,1.93
2022-12-01T11:56:22.137Z,1.70
2022-12-01T12:01:37.928Z,1.88
2022-12-01T12:06:53.224Z,1.50
2022-12-01T12:12:11.680Z,1.70
2022-12-01T12:17:34.950Z,2.20
2022-12-01T12:22:55.215Z,1.70
2022-12-01T12:28:13.810Z,2.17
2022-12-01T12:33:40.174Z,1.63
2022-12-01T12:39:02.520Z,2.08
2022-12-01T12:44:24.431Z,2.22
2022-12-01T12:49:37.677Z,1.75
2022-12-01T12:54:49.926Z,2.13
2022-12-01T12:59:58.412Z,1.52
2022-12-01T13:05:07.673Z,1.27
2022-12-01T13:10:23.813Z,2.40
2022-12-01T13:15:28.195Z,1.95
2022-12-01T13:20:34.030Z,1.73
2022-12-01T13:25:41.740Z,1.98
2022-12-01T13:31:00.217Z,2.20
2022-12-01T13:41:37.244Z,2.20
2022-12-01T13:46:53.921Z,2.30
2022-12-01T13:52:33.192Z,2.47
2022-12-01T13:57:40.590Z,1.80
2022-12-01T14:02:44.549Z,1.90
2022-12-01T14:07:49.551Z,2.10
2022-12-01T14:12:58.365Z,2.40
2022-12-01T14:18:07.262Z,1.73
2022-12-01T14:23:17.511Z,1.90
2022-12-01T14:29:01.528Z,1.85
2022-12-01T14:34:10.379Z,1.80
2022-12-01T14:39:19.481Z,1.65
2022-12-01T14:44:28.163Z,2.08
2022-12-01T14:49:35.303Z,1.65
2022-12-01T14:54:45.647Z,1.65
2022-12-01T15:00:05.520Z,1.50
2022-12-01T15:05:13.356Z,1.90
2022-12-01T15:10:19.560Z,2.00
2022-12-01T15:15:27.663Z,2.03
2022-12-01T15:20:33.956Z,1.90
2022-12-01T15:30:43.597Z,1.60
2022-12-01T15:35:47.344Z,0.65
2022-12-01T15:41:21.020Z,0.70
2022-12-01T15:46:19.271Z,0.40
2022-12-01T15:51:27.944Z,0.50
2022-12-01T15:56:34.257Z,0.40
2022-12-01T16:06:51.831Z,0.38
2022-12-01T16:12:20.007Z,0.57
2022-12-01T16:17:26.012Z,0.68
2022-12-01T16:22:29.641Z,0.43
2022-12-01T16:27:33.348Z,0.93
2022-12-01T16:32:40.290Z,0.40
2022-12-01T16:37:43.839Z,0.45
2022-12-01T16:42:48.019Z,0.50
2022-12-01T16:47:53.230Z,0.75
2022-12-01T16:52:57.552Z,0.30
2022-12-01T16:58:01.159Z,0.50
2022-12-01T17:03:07.403Z,0.35
2022-12-01T17:13:14.548Z,0.60
2022-12-01T17:18:21.966Z,0.60
2022-12-01T17:23:25.534Z,0.70
2022-12-01T17:28:29.289Z,0.50
2022-12-01T17:33:35.247Z,0.50
2022-12-01T17:38:40.241Z,0.50
2022-12-01T17:43:43.915Z,0.43
2022-12-01T17:48:49.093Z,0.30
2022-12-01T17:53:54.150Z,0.30
2022-12-01T17:58:57.679Z,0.30
2022-12-01T18:04:02.893Z,0.52
2022-12-01T18:09:06.800Z,0.30
2022-12-01T18:14:10.344Z,0.30
2022-12-01T18:19:16.577Z,0.45
2022-12-01T18:29:23.163Z,0.30
2022-12-01T18:34:29.506Z,0.50
2022-12-01T18:39:33.159Z,0.30
2022-12-01T18:44:36.735Z,0.40
2022-12-01T18:49:42.605Z,0.38
2022-12-01T18:54:46.179Z,0.43
2022-12-01T18:59:49.722Z,0.30
2022-12-01T19:04:54.897Z,0.40
2022-12-01T19:09:58.471Z,0.30
2022-12-01T19:15:02.067Z,0.40
2022-12-01T19:20:08.421Z,0.98
2022-12-01T19:25:12.037Z,0.50
2022-12-01T19:30:15.779Z,0.70
2022-12-01T19:35:21.188Z,0.50
2022-12-01T19:40:24.765Z,0.93
2022-12-01T19:45:28.324Z,0.80
2022-12-01T19:50:35.612Z,0.63
2022-12-01T19:55:40.399Z,0.57
2022-12-01T20:00:44.057Z,0.57
2022-12-01T20:05:50.182Z,0.75
2022-12-01T20:10:53.783Z,0.47
2022-12-01T20:16:02.727Z,0.57
2022-12-01T20:21:09.940Z,0.50
2022-12-01T20:26:14.939Z,0.52
2022-12-01T20:31:22.725Z,0.47
2022-12-01T20:36:28.545Z,0.77
2022-12-01T20:41:32.202Z,0.50
2022-12-01T20:46:36.639Z,0.65
2022-12-01T20:51:41.980Z,0.52
2022-12-01T20:56:45.652Z,0.40
2022-12-01T21:01:49.247Z,0.40
2022-12-01T21:06:56.375Z,0.63
2022-12-01T21:12:02.934Z,0.93
2022-12-01T21:17:17.310Z,0.93
2022-12-01T21:22:23.495Z,0.90
2022-12-01T21:32:34.022Z,1.10
2022-12-01T21:37:39.307Z,1.10
2022-12-01T21:42:42.947Z,1.30
2022-12-01T21:47:46.545Z,0.75
2022-12-01T21:52:52.106Z,1.08
2022-12-01T21:57:55.840Z,0.87
2022-12-01T22:03:22.536Z,1.10
2022-12-01T22:08:29.212Z,1.50
2022-12-01T22:13:41.631Z,1.05
2022-12-01T22:18:50.053Z,1.45
2022-12-01T22:24:01.677Z,0.90
2022-12-01T22:29:21.432Z,0.95
2022-12-01T22:34:25.090Z,0.85
2022-12-01T22:39:32.336Z,0.90
2022-12-01T22:44:35.990Z,0.93
2022-12-01T22:49:39.545Z,0.80
2022-12-01T22:54:47.709Z,1.10
2022-12-01T22:59:51.888Z,0.90
2022-12-01T23:04:57.891Z,1.17
2022-12-01T23:10:13.136Z,1.05
2022-12-01T23:15:27.810Z,1.05
2022-12-01T23:20:33.651Z,1.40
2022-12-01T23:25:39.920Z,1.15
2022-12-01T23:30:44.882Z,0.93
2022-12-01T23:35:52.580Z,1.10
2022-12-01T23:41:01.066Z,0.98
2022-12-01T23:46:06.755Z,0.95
2022-12-01T23:51:20.607Z,1.08
2022-12-01T23:56:27.723Z,1.52
